createdAt,value
2018-05-03T00:00:24.020Z,13.90
2018-05-03T00:02:51.433Z,13.80
2018-05-03T00:05:18.953Z,13.80
2018-05-03T00:07:46.410Z,13.80
2018-05-03T00:10:13.841Z,13.70
2018-05-03T00:12:41.271Z,13.80
2018-05-03T00:15:08.770Z,13.70
2018-05-03T00:17:36.234Z,13.70
2018-05-03T00:20:03.684Z,13.70
2018-05-03T00:22:31.150Z,13.70
2018-05-03T00:24:58.588Z,13.60
2018-05-03T00:27:26.001Z,13.60
2018-05-03T00:29:54.318Z,13.60
2018-05-03T00:32:21.789Z,13.60
2018-05-03T00:34:49.350Z,13.50
2018-05-03T00:37:16.768Z,13.50
2018-05-03T00:39:44.261Z,13.40
2018-05-03T00:42:11.700Z,13.40
2018-05-03T00:44:39.119Z,13.30
2018-05-03T00:47:06.642Z,13.30
2018-05-03T00:49:34.079Z,13.30
2018-05-03T00:52:01.510Z,13.30
2018-05-03T00:57:24.395Z,13.10
2018-05-03T00:59:51.823Z,13.10
2018-05-03T01:02:19.329Z,13.10
2018-05-03T01:04:46.785Z,13.10
2018-05-03T01:07:14.450Z,13.10
2018-05-03T01:09:41.861Z,13.00
2018-05-03T01:12:10.067Z,13.00
2018-05-03T01:14:37.480Z,13.00
2018-05-03T01:17:04.978Z,13.00
2018-05-03T01:19:32.393Z,12.90
2018-05-03T01:21:59.900Z,12.90
2018-05-03T01:24:27.359Z,12.80
2018-05-03T01:26:54.812Z,12.80
2018-05-03T01:29:22.245Z,12.70
2018-05-03T01:31:49.674Z,12.70
2018-05-03T01:34:17.182Z,12.80
2018-05-03T01:36:44.818Z,12.80
2018-05-03T01:39:12.326Z,12.70
2018-05-03T01:41:39.854Z,12.60
2018-05-03T01:44:07.485Z,12.60
2018-05-03T01:46:34.955Z,12.60
2018-05-03T01:49:02.530Z,12.60
2018-05-03T01:51:29.971Z,12.60
2018-05-03T01:53:57.446Z,12.60
2018-05-03T01:56:24.884Z,12.60
2018-05-03T01:58:52.342Z,12.60
2018-05-03T02:01:19.822Z,12.60
2018-05-03T02:03:47.444Z,12.50
2018-05-03T02:06:14.974Z,12.50
2018-05-03T02:08:42.485Z,12.60
2018-05-03T02:11:09.965Z,12.60
2018-05-03T02:13:37.703Z,12.60
2018-05-03T02:16:05.465Z,12.50
2018-05-03T02:18:32.934Z,12.50
2018-05-03T02:21:00.386Z,12.50
2018-05-03T02:23:27.832Z,12.50
2018-05-03T02:25:55.264Z,12.50
2018-05-03T02:28:22.758Z,12.40
2018-05-03T02:30:50.218Z,12.40
2018-05-03T02:33:17.654Z,12.40
2018-05-03T02:35:45.080Z,12.40
2018-05-03T02:38:12.505Z,12.40
2018-05-03T02:40:39.930Z,12.50
2018-05-03T02:43:07.382Z,12.40
2018-05-03T02:45:34.874Z,12.40
2018-05-03T02:48:02.318Z,12.40
2018-05-03T02:50:29.777Z,12.40
2018-05-03T02:52:57.272Z,12.40
2018-05-03T02:55:24.769Z,12.50
2018-05-03T02:58:09.671Z,12.40
2018-05-03T03:00:54.558Z,12.50
2018-05-03T03:06:50.425Z,12.50
2018-05-03T03:12:59.383Z,12.50
2018-05-03T03:15:44.172Z,12.50
2018-05-03T03:18:29.112Z,12.50
2018-05-03T03:21:14.210Z,12.40
2018-05-03T03:23:59.237Z,12.40
2018-05-03T03:26:38.942Z,12.40
2018-05-03T03:29:23.895Z,12.40
2018-05-03T03:32:08.874Z,12.40
2018-05-03T03:34:36.377Z,12.40
2018-05-03T03:37:16.507Z,12.40
2018-05-03T03:40:01.415Z,12.30
2018-05-03T03:45:41.534Z,12.30
2018-05-03T03:48:09.171Z,12.30
2018-05-03T03:50:36.606Z,12.20
2018-05-03T03:53:04.188Z,12.30
2018-05-03T03:55:31.790Z,12.30
2018-05-03T03:57:59.217Z,12.30
2018-05-03T04:00:27.413Z,12.20
2018-05-03T04:02:54.899Z,12.20
2018-05-03T04:05:22.320Z,12.20
2018-05-03T04:07:49.754Z,12.20
2018-05-03T04:10:17.190Z,12.20
2018-05-03T04:12:44.622Z,12.20
2018-05-03T04:15:12.090Z,12.10
2018-05-03T04:17:51.233Z,12.00
2018-05-03T04:20:40.278Z,11.80
2018-05-03T04:23:19.453Z,11.80
2018-05-03T04:25:58.842Z,11.90
2018-05-03T04:28:26.482Z,12.00
2018-05-03T04:30:53.990Z,12.10
2018-05-03T04:33:21.447Z,12.00
2018-05-03T04:35:48.852Z,12.00
2018-05-03T04:38:16.342Z,12.10
2018-05-03T04:40:43.795Z,12.10
2018-05-03T04:43:11.336Z,12.10
2018-05-03T04:45:38.794Z,12.20
2018-05-03T04:48:06.234Z,12.20
2018-05-03T04:50:33.670Z,12.30
2018-05-03T04:53:01.169Z,12.30
2018-05-03T04:55:28.612Z,12.30
2018-05-03T04:57:56.075Z,12.30
2018-05-03T05:00:23.502Z,12.30
2018-05-03T05:02:50.986Z,12.30
2018-05-03T05:05:18.415Z,12.30
2018-05-03T05:07:45.836Z,12.30
2018-05-03T05:10:13.261Z,12.40
2018-05-03T05:12:40.693Z,12.40
2018-05-03T05:15:08.269Z,12.40
2018-05-03T05:17:35.721Z,12.40
2018-05-03T05:20:03.190Z,12.50
2018-05-03T05:22:30.638Z,12.50
2018-05-03T05:24:58.821Z,12.60
2018-05-03T05:27:26.461Z,12.60
2018-05-03T05:29:53.885Z,12.60
2018-05-03T05:32:21.377Z,12.60
2018-05-03T05:34:49.017Z,12.70
2018-05-03T05:37:16.625Z,12.70
2018-05-03T05:39:44.247Z,12.80
2018-05-03T05:42:12.606Z,12.90
2018-05-03T05:44:40.830Z,13.00
2018-05-03T05:47:08.268Z,13.00
2018-05-03T05:49:35.699Z,12.90
2018-05-03T05:52:03.178Z,13.00
2018-05-03T05:54:30.637Z,13.00
2018-05-03T05:56:58.090Z,13.10
2018-05-03T05:59:25.539Z,13.20
2018-05-03T06:01:53.018Z,13.20
2018-05-03T06:04:20.674Z,13.30
2018-05-03T06:06:49.161Z,13.30
2018-05-03T06:09:16.717Z,13.30
2018-05-03T06:11:44.379Z,13.30
2018-05-03T06:14:11.810Z,13.30
2018-05-03T06:16:39.228Z,13.30
2018-05-03T06:19:06.662Z,13.40
2018-05-03T06:21:34.183Z,13.40
2018-05-03T06:24:01.603Z,13.40
2018-05-03T06:26:29.021Z,13.50
2018-05-03T06:28:56.562Z,13.60
2018-05-03T06:31:23.989Z,13.60
2018-05-03T06:33:51.405Z,13.60
2018-05-03T06:36:18.931Z,13.60
2018-05-03T06:38:46.396Z,13.60
2018-05-03T06:41:14.030Z,13.60
2018-05-03T06:43:41.465Z,13.60
2018-05-03T06:46:09.681Z,13.70
2018-05-03T06:48:37.139Z,13.60
2018-05-03T06:51:04.566Z,13.70
2018-05-03T06:53:32.049Z,13.70
2018-05-03T06:55:59.693Z,13.80
2018-05-03T06:58:27.226Z,13.70
2018-05-03T07:00:55.650Z,13.80
2018-05-03T07:03:23.282Z,13.80
2018-05-03T07:05:50.711Z,13.80
2018-05-03T07:08:18.202Z,13.80
2018-05-03T07:10:45.786Z,13.80
2018-05-03T07:13:13.409Z,13.90
2018-05-03T07:15:41.000Z,13.90
2018-05-03T07:18:08.414Z,13.90
2018-05-03T07:20:35.859Z,14.00
2018-05-03T07:23:03.261Z,14.00
2018-05-03T07:25:30.761Z,14.10
2018-05-03T07:27:58.182Z,14.10
2018-05-03T07:30:25.743Z,14.20
2018-05-03T07:32:54.115Z,14.20
2018-05-03T07:35:21.546Z,14.20
2018-05-03T07:37:48.977Z,14.20
2018-05-03T07:40:16.486Z,14.20
2018-05-03T07:42:44.250Z,14.30
2018-05-03T07:45:11.755Z,14.40
2018-05-03T07:47:39.988Z,14.40
2018-05-03T07:50:07.547Z,14.40
2018-05-03T07:52:34.973Z,14.40
2018-05-03T07:55:02.409Z,14.50
2018-05-03T07:57:29.847Z,14.50
2018-05-03T07:59:57.270Z,14.60
2018-05-03T08:02:24.724Z,14.60
2018-05-03T08:04:52.310Z,14.70
2018-05-03T08:07:20.034Z,14.70
2018-05-03T08:09:47.490Z,14.90
2018-05-03T08:12:14.890Z,15.00
2018-05-03T08:14:42.313Z,15.00
2018-05-03T08:17:09.936Z,15.00
2018-05-03T08:19:37.322Z,15.10
2018-05-03T08:22:04.949Z,15.20
2018-05-03T08:24:32.538Z,15.20
2018-05-03T08:26:59.968Z,15.40
2018-05-03T08:29:27.451Z,15.40
2018-05-03T08:31:54.979Z,15.40
2018-05-03T08:34:22.305Z,15.50
2018-05-03T08:36:49.737Z,15.50
2018-05-03T08:39:17.161Z,15.60
2018-05-03T08:41:44.598Z,15.60
2018-05-03T08:44:12.901Z,15.80
2018-05-03T08:46:40.461Z,15.70
2018-05-03T08:49:08.022Z,15.90
2018-05-03T08:51:35.445Z,16.00
2018-05-03T08:54:02.867Z,16.00
2018-05-03T08:56:31.305Z,16.10
2018-05-03T08:58:58.739Z,16.10
2018-05-03T09:01:26.203Z,16.10
2018-05-03T09:03:53.694Z,16.20
2018-05-03T09:06:21.123Z,16.30
2018-05-03T09:08:48.547Z,16.40
2018-05-03T09:11:15.969Z,16.40
2018-05-03T09:13:43.385Z,16.60
2018-05-03T09:16:10.959Z,16.70
2018-05-03T09:18:38.385Z,16.90
2018-05-03T09:21:05.874Z,17.00
2018-05-03T09:23:33.327Z,17.00
2018-05-03T09:26:00.787Z,16.90
2018-05-03T09:28:28.198Z,16.90
2018-05-03T09:30:55.706Z,17.00
2018-05-03T09:33:23.470Z,17.10
2018-05-03T09:35:50.903Z,17.20
2018-05-03T09:38:18.377Z,17.30
2018-05-03T09:40:45.817Z,17.50
2018-05-03T09:43:13.243Z,17.60
2018-05-03T09:45:40.675Z,17.60
2018-05-03T09:48:08.101Z,17.70
2018-05-03T09:50:35.645Z,17.70
2018-05-03T09:53:03.137Z,17.80
2018-05-03T09:55:30.570Z,17.80
2018-05-03T09:57:58.024Z,17.90
2018-05-03T10:00:25.459Z,18.00
2018-05-03T10:02:52.882Z,18.10
2018-05-03T10:05:20.470Z,18.10
2018-05-03T10:07:47.821Z,18.30
2018-05-03T10:10:15.238Z,18.40
2018-05-03T10:12:42.734Z,18.50
2018-05-03T10:15:10.238Z,18.60
2018-05-03T10:17:37.858Z,18.60
2018-05-03T10:20:05.348Z,18.60
2018-05-03T10:22:32.842Z,18.70
2018-05-03T10:25:00.355Z,18.80
2018-05-03T10:27:27.782Z,18.90
2018-05-03T10:29:55.314Z,19.00
2018-05-03T10:32:22.704Z,19.10
2018-05-03T10:34:50.187Z,19.10
2018-05-03T10:37:17.945Z,19.20
2018-05-03T10:39:45.372Z,19.30
2018-05-03T10:42:12.861Z,19.40
2018-05-03T10:44:40.390Z,19.60
2018-05-03T10:47:08.036Z,19.80
2018-05-03T10:49:35.436Z,20.00
2018-05-03T10:52:02.863Z,20.10
2018-05-03T10:54:30.370Z,20.20
2018-05-03T10:56:57.898Z,20.30
2018-05-03T10:59:25.324Z,20.40
2018-05-03T11:01:52.762Z,20.30
2018-05-03T11:04:20.185Z,20.50
2018-05-03T11:06:48.561Z,20.80
2018-05-03T11:09:15.991Z,20.70
2018-05-03T11:11:43.474Z,20.80
2018-05-03T11:14:10.922Z,21.00
2018-05-03T11:16:38.384Z,21.10
2018-05-03T11:19:05.925Z,21.30
2018-05-03T11:21:33.350Z,21.40
2018-05-03T11:24:00.758Z,21.40
2018-05-03T11:26:28.290Z,21.40
2018-05-03T11:28:55.745Z,21.30
2018-05-03T11:31:23.247Z,21.30
2018-05-03T11:33:50.665Z,21.20
2018-05-03T11:36:18.085Z,21.20
2018-05-03T11:38:45.489Z,21.30
2018-05-03T11:41:13.232Z,21.40
2018-05-03T11:43:40.793Z,21.50
2018-05-03T11:46:08.222Z,21.80
2018-05-03T11:48:35.631Z,22.10
2018-05-03T11:51:03.533Z,22.20
2018-05-03T11:53:31.101Z,22.40
2018-05-03T11:55:58.554Z,22.50
2018-05-03T11:58:26.742Z,22.50
2018-05-03T12:00:54.149Z,22.50
2018-05-03T12:03:21.673Z,22.60
2018-05-03T12:05:49.094Z,22.70
2018-05-03T12:08:16.581Z,22.90
2018-05-03T12:10:43.998Z,23.10
2018-05-03T12:13:11.422Z,23.40
2018-05-03T12:15:38.889Z,23.40
2018-05-03T12:18:06.384Z,23.30
2018-05-03T12:20:33.805Z,23.20
2018-05-03T12:23:01.244Z,23.30
2018-05-03T12:25:28.685Z,23.70
2018-05-03T12:27:56.136Z,24.00
2018-05-03T12:30:23.618Z,24.30
2018-05-03T12:32:51.133Z,24.20
2018-05-03T12:35:18.601Z,24.20
2018-05-03T12:37:46.035Z,24.90
2018-05-03T12:40:13.448Z,25.70
2018-05-03T12:42:40.876Z,26.90
2018-05-03T12:45:08.285Z,28.50
2018-05-03T12:47:36.474Z,30.30
2018-05-03T12:50:03.954Z,30.20
2018-05-03T12:52:31.374Z,30.40
2018-05-03T12:54:59.552Z,32.00
2018-05-03T12:57:27.240Z,31.90
2018-05-03T12:59:54.645Z,33.20
2018-05-03T13:02:22.065Z,34.50
2018-05-03T13:04:49.518Z,36.10
2018-05-03T13:07:17.066Z,37.20
2018-05-03T13:09:44.480Z,36.60
2018-05-03T13:12:11.982Z,37.90
2018-05-03T13:14:39.389Z,38.80
2018-05-03T13:17:07.586Z,37.30
2018-05-03T13:19:35.278Z,37.30
2018-05-03T13:22:02.906Z,35.90
2018-05-03T13:24:31.277Z,34.70
2018-05-03T13:26:59.492Z,34.30
2018-05-03T13:29:26.906Z,34.20
2018-05-03T13:31:54.329Z,34.10
2018-05-03T13:34:21.859Z,33.80
2018-05-03T13:36:49.310Z,33.60
2018-05-03T13:39:16.763Z,33.60
2018-05-03T13:41:44.223Z,33.60
2018-05-03T13:44:11.635Z,34.70
2018-05-03T13:46:39.278Z,34.50
2018-05-03T13:49:06.896Z,33.40
2018-05-03T13:51:34.357Z,33.00
2018-05-03T13:54:01.775Z,32.90
2018-05-03T13:56:30.190Z,33.10
2018-05-03T13:58:57.607Z,33.20
2018-05-03T14:01:26.009Z,32.70
2018-05-03T14:03:53.441Z,32.70
2018-05-03T14:06:20.854Z,31.70
2018-05-03T14:08:48.387Z,32.10
2018-05-03T14:11:15.794Z,32.30
2018-05-03T14:13:43.298Z,32.40
2018-05-03T14:16:10.712Z,32.00
2018-05-03T14:18:38.210Z,31.40
2018-05-03T14:21:05.659Z,30.80
2018-05-03T14:23:33.123Z,30.10
2018-05-03T14:26:00.539Z,30.30
2018-05-03T14:28:28.001Z,30.10
2018-05-03T14:30:55.418Z,29.80
2018-05-03T14:33:22.858Z,29.90
2018-05-03T14:35:50.320Z,29.30
2018-05-03T14:38:17.793Z,28.90
2018-05-03T14:40:45.205Z,28.40
2018-05-03T14:43:12.890Z,28.00
2018-05-03T14:45:40.441Z,28.10
2018-05-03T14:48:07.983Z,28.40
2018-05-03T14:50:35.397Z,28.80
2018-05-03T14:53:02.916Z,28.90
2018-05-03T14:55:30.330Z,29.20
2018-05-03T14:57:57.773Z,29.30
2018-05-03T15:00:25.171Z,29.20
2018-05-03T15:02:52.646Z,29.70
2018-05-03T15:05:20.118Z,29.90
2018-05-03T15:07:47.548Z,29.80
2018-05-03T15:10:14.962Z,29.60
2018-05-03T15:12:43.165Z,29.70
2018-05-03T15:15:10.569Z,29.70
2018-05-03T15:17:38.078Z,28.90
2018-05-03T15:20:05.494Z,28.80
2018-05-03T15:22:32.923Z,28.40
2018-05-03T15:25:00.343Z,28.30
2018-05-03T15:27:27.766Z,28.60
2018-05-03T15:29:55.967Z,28.70
2018-05-03T15:32:23.385Z,28.70
2018-05-03T15:34:50.822Z,29.00
2018-05-03T15:37:18.230Z,29.20
2018-05-03T15:39:45.667Z,29.30
2018-05-03T15:42:13.853Z,28.80
2018-05-03T15:44:41.354Z,28.80
2018-05-03T15:47:08.707Z,28.30
2018-05-03T15:49:36.125Z,27.90
2018-05-03T15:52:03.550Z,27.90
2018-05-03T15:54:31.750Z,28.20
2018-05-03T15:56:59.173Z,28.10
2018-05-03T15:59:26.593Z,28.30
2018-05-03T16:01:54.022Z,28.40
2018-05-03T16:04:21.514Z,28.50
2018-05-03T16:06:48.937Z,28.50
2018-05-03T16:09:16.349Z,28.40
2018-05-03T16:11:43.766Z,28.40
2018-05-03T16:14:11.501Z,28.20
2018-05-03T16:16:38.882Z,28.30
2018-05-03T16:19:06.333Z,28.00
2018-05-03T16:21:33.733Z,27.30
2018-05-03T16:24:01.166Z,27.00
2018-05-03T16:26:28.706Z,27.00
2018-05-03T16:28:56.126Z,26.80
2018-05-03T16:31:23.536Z,26.70
2018-05-03T16:33:51.065Z,26.40
2018-05-03T16:36:18.525Z,26.30
2018-05-03T16:38:46.048Z,26.30
2018-05-03T16:41:13.462Z,26.20
2018-05-03T16:43:41.100Z,25.90
2018-05-03T16:46:08.663Z,25.70
2018-05-03T16:51:32.812Z,25.40
2018-05-03T16:54:01.884Z,25.10
2018-05-03T16:56:29.338Z,25.10
2018-05-03T16:58:56.746Z,25.20
2018-05-03T17:01:24.314Z,25.30
2018-05-03T17:03:51.807Z,25.30
2018-05-03T17:06:19.224Z,25.40
2018-05-03T17:08:46.654Z,25.50
2018-05-03T17:11:14.070Z,25.40
2018-05-03T17:13:41.515Z,25.50
2018-05-03T17:16:08.966Z,25.70
2018-05-03T17:18:36.478Z,25.60
2018-05-03T17:21:03.892Z,25.60
2018-05-03T17:23:31.391Z,25.60
2018-05-03T17:25:58.803Z,25.60
2018-05-03T17:28:26.277Z,25.30
2018-05-03T17:30:53.694Z,25.00
2018-05-03T17:33:21.124Z,24.60
2018-05-03T17:35:48.549Z,24.40
2018-05-03T17:38:15.958Z,24.30
2018-05-03T17:40:43.392Z,24.10
2018-05-03T17:43:10.802Z,23.90
2018-05-03T17:45:38.221Z,23.70
2018-05-03T17:48:05.795Z,23.80
2018-05-03T17:50:33.220Z,23.40
2018-05-03T17:53:00.629Z,23.20
2018-05-03T17:55:28.081Z,23.10
2018-05-03T17:57:55.501Z,23.00
2018-05-03T18:00:23.019Z,22.90
2018-05-03T18:02:50.555Z,22.60
2018-05-03T18:05:18.010Z,22.50
2018-05-03T18:07:45.633Z,22.30
2018-05-03T18:10:13.219Z,22.20
2018-05-03T18:12:40.669Z,21.90
2018-05-03T18:15:08.114Z,21.90
2018-05-03T18:17:35.530Z,21.80
2018-05-03T18:20:02.953Z,21.70
2018-05-03T18:22:30.428Z,21.50
2018-05-03T18:24:58.758Z,21.90
2018-05-03T18:27:26.334Z,21.30
2018-05-03T18:29:53.762Z,21.20
2018-05-03T18:32:21.169Z,21.10
2018-05-03T18:34:48.702Z,20.90
2018-05-03T18:37:16.128Z,20.90
2018-05-03T18:39:43.553Z,20.80
2018-05-03T18:42:10.974Z,20.60
2018-05-03T18:44:38.509Z,20.60
2018-05-03T18:47:05.987Z,20.50
2018-05-03T18:49:33.469Z,20.40
2018-05-03T18:52:01.137Z,20.30
2018-05-03T18:54:29.267Z,20.10
2018-05-03T18:56:56.690Z,20.10
2018-05-03T18:59:24.186Z,20.10
2018-05-03T19:01:51.643Z,19.90
2018-05-03T19:04:19.062Z,19.80
2018-05-03T19:06:46.485Z,19.70
2018-05-03T19:09:13.923Z,19.70
2018-05-03T19:11:41.499Z,19.70
2018-05-03T19:14:08.894Z,19.60
2018-05-03T19:16:36.343Z,19.50
2018-05-03T19:19:04.535Z,19.30
2018-05-03T19:21:34.887Z,19.30
2018-05-03T19:24:04.273Z,19.20
2018-05-03T19:26:32.592Z,19.10
2018-05-03T19:28:59.997Z,19.00
2018-05-03T19:31:27.562Z,18.90
2018-05-03T19:33:55.037Z,18.90
2018-05-03T19:36:22.467Z,18.80
2018-05-03T19:38:49.941Z,18.70
2018-05-03T19:41:17.373Z,18.60
2018-05-03T19:43:44.861Z,18.60
2018-05-03T19:46:12.287Z,18.50
2018-05-03T19:48:39.701Z,18.50
2018-05-03T19:51:07.217Z,18.40
2018-05-03T19:53:34.637Z,18.30
2018-05-03T19:56:02.141Z,18.30
2018-05-03T19:58:29.889Z,18.30
2018-05-03T20:00:57.362Z,18.20
2018-05-03T20:03:24.778Z,18.10
2018-05-03T20:05:52.270Z,18.00
2018-05-03T20:08:19.717Z,17.90
2018-05-03T20:10:48.677Z,17.90
2018-05-03T20:13:16.091Z,17.80
2018-05-03T20:15:43.541Z,17.80
2018-05-03T20:18:18.428Z,17.70
2018-05-03T20:20:45.833Z,17.70
2018-05-03T20:23:13.253Z,17.70
2018-05-03T20:25:40.818Z,17.60
2018-05-03T20:28:09.146Z,17.60
2018-05-03T20:30:36.612Z,17.50
2018-05-03T20:33:04.118Z,17.50
2018-05-03T20:35:31.874Z,17.40
2018-05-03T20:37:59.295Z,17.20
2018-05-03T20:40:26.726Z,17.20
2018-05-03T20:42:54.250Z,17.20
2018-05-03T20:45:21.698Z,17.20
2018-05-03T20:47:49.280Z,17.10
2018-05-03T20:50:16.881Z,17.10
2018-05-03T20:52:45.083Z,17.00
2018-05-03T20:55:12.757Z,17.00
2018-05-03T20:57:40.290Z,16.90
2018-05-03T21:03:03.990Z,16.90
2018-05-03T21:05:31.532Z,16.80
2018-05-03T21:07:58.963Z,16.80
2018-05-03T21:10:26.378Z,16.90
2018-05-03T21:12:53.906Z,16.80
2018-05-03T21:15:21.323Z,16.70
2018-05-03T21:17:48.741Z,16.80
2018-05-03T21:20:16.170Z,16.70
2018-05-03T21:22:43.598Z,16.70
2018-05-03T21:25:11.016Z,16.60
2018-05-03T21:27:38.438Z,16.50
2018-05-03T21:30:05.918Z,16.50
2018-05-03T21:32:33.554Z,16.50
2018-05-03T21:35:00.966Z,16.40
2018-05-03T21:37:28.395Z,16.30
2018-05-03T21:39:55.816Z,16.40
2018-05-03T21:42:23.276Z,16.30
2018-05-03T21:44:50.669Z,16.20
2018-05-03T21:47:18.290Z,16.20
2018-05-03T21:49:45.707Z,16.20
2018-05-03T21:52:13.203Z,16.20
2018-05-03T21:54:40.608Z,16.10
2018-05-03T21:57:08.029Z,16.10
2018-05-03T21:59:35.445Z,16.00
2018-05-03T22:02:02.897Z,15.90
2018-05-03T22:04:31.088Z,15.80
2018-05-03T22:06:58.551Z,15.80
2018-05-03T22:09:25.965Z,15.80
2018-05-03T22:11:53.391Z,15.80
2018-05-03T22:14:20.810Z,15.80
2018-05-03T22:16:48.234Z,15.80
2018-05-03T22:19:16.413Z,15.60
2018-05-03T22:21:43.838Z,15.60
2018-05-03T22:24:11.259Z,15.50
2018-05-03T22:26:38.677Z,15.50
2018-05-03T22:29:06.866Z,15.50
2018-05-03T22:31:34.286Z,15.50
2018-05-03T22:34:01.699Z,15.40
2018-05-03T22:36:29.207Z,15.40
2018-05-03T22:38:56.622Z,15.20
2018-05-03T22:41:24.171Z,15.30
2018-05-03T22:43:51.625Z,15.30
2018-05-03T22:46:19.030Z,15.10
2018-05-03T22:48:46.449Z,15.10
2018-05-03T22:51:13.991Z,15.10
2018-05-03T22:53:41.405Z,15.00
2018-05-03T22:56:08.896Z,15.00
2018-05-03T22:58:36.354Z,15.00
2018-05-03T23:01:03.766Z,14.90
2018-05-03T23:03:31.189Z,14.90
2018-05-03T23:05:58.625Z,14.90
2018-05-03T23:08:26.131Z,14.80
2018-05-03T23:10:53.535Z,14.80
2018-05-03T23:13:21.011Z,14.80
2018-05-03T23:15:48.417Z,14.80
2018-05-03T23:18:16.605Z,14.70
2018-05-03T23:20:44.014Z,14.70
2018-05-03T23:23:11.447Z,14.60
2018-05-03T23:25:38.870Z,14.60
2018-05-03T23:28:06.318Z,14.60
2018-05-03T23:30:33.806Z,14.60
2018-05-03T23:33:01.226Z,14.60
2018-05-03T23:35:29.433Z,14.50
2018-05-03T23:37:56.841Z,14.50
2018-05-03T23:40:24.249Z,14.50
2018-05-03T23:42:51.806Z,14.50
2018-05-03T23:45:19.633Z,14.50
2018-05-03T23:47:47.233Z,14.50
2018-05-03T23:50:14.759Z,14.50
2018-05-03T23:52:42.178Z,14.50
2018-05-03T23:55:09.602Z,14.40
2018-05-03T23:57:37.150Z,14.40
